sensor_id;sensor_type;location;lat;lon;timestamp;P1;durP1;ratioP1;P2;durP2;ratioP2
22939;SDS011;11636;52.086;5.090;2022-10-13T00:00:11;10.73;;;6.55;;
22939;SDS011;11636;52.086;5.090;2022-10-13T00:02:44;9.02;;;6.68;;
22939;SDS011;11636;52.086;5.090;2022-10-13T00:05:17;10.13;;;6.75;;
22939;SDS011;11636;52.086;5.090;2022-10-13T00:07:50;13.07;;;8.32;;
22939;SDS011;11636;52.086;5.090;2022-10-13T00:10:17;10.82;;;7.03;;
22939;SDS011;11636;52.086;5.090;2022-10-13T00:12:50;10.00;;;6.97;;
22939;SDS011;11636;52.086;5.090;2022-10-13T00:15:18;10.60;;;6.63;;
22939;SDS011;11636;52.086;5.090;2022-10-13T00:17:51;11.35;;;7.72;;
22939;SDS011;11636;52.086;5.090;2022-10-13T00:20:18;10.75;;;7.28;;
22939;SDS011;11636;52.086;5.090;2022-10-13T00:22:51;11.90;;;6.63;;
22939;SDS011;11636;52.086;5.090;2022-10-13T00:25:18;10.85;;;7.18;;
22939;SDS011;11636;52.086;5.090;2022-10-13T00:27:51;9.80;;;7.35;;
22939;SDS011;11636;52.086;5.090;2022-10-13T00:30:18;15.73;;;9.30;;
22939;SDS011;11636;52.086;5.090;2022-10-13T00:32:51;10.15;;;6.78;;
22939;SDS011;11636;52.086;5.090;2022-10-13T00:35:18;12.18;;;7.35;;
22939;SDS011;11636;52.086;5.090;2022-10-13T00:37:51;13.23;;;7.53;;
22939;SDS011;11636;52.086;5.090;2022-10-13T00:40:18;11.40;;;7.20;;
22939;SDS011;11636;52.086;5.090;2022-10-13T00:42:52;9.35;;;6.13;;
22939;SDS011;11636;52.086;5.090;2022-10-13T00:45:23;9.20;;;6.38;;
22939;SDS011;11636;52.086;5.090;2022-10-13T00:47:53;11.45;;;7.80;;
22939;SDS011;11636;52.086;5.090;2022-10-13T00:50:33;12.95;;;8.10;;
22939;SDS011;11636;52.086;5.090;2022-10-13T00:53:03;12.15;;;7.50;;
22939;SDS011;11636;52.086;5.090;2022-10-13T00:55:37;13.27;;;8.50;;
22939;SDS011;11636;52.086;5.090;2022-10-13T00:58:14;12.70;;;8.27;;
22939;SDS011;11636;52.086;5.090;2022-10-13T01:00:51;12.23;;;7.88;;
22939;SDS011;11636;52.086;5.090;2022-10-13T01:03:25;10.70;;;7.47;;
22939;SDS011;11636;52.086;5.090;2022-10-13T01:05:53;10.18;;;6.78;;
22939;SDS011;11636;52.086;5.090;2022-10-13T01:08:29;11.60;;;6.95;;
22939;SDS011;11636;52.086;5.090;2022-10-13T01:11:04;11.90;;;7.95;;
22939;SDS011;11636;52.086;5.090;2022-10-13T01:13:58;12.65;;;8.00;;
22939;SDS011;11636;52.086;5.090;2022-10-13T01:16:33;10.82;;;8.05;;
22939;SDS011;11636;52.086;5.090;2022-10-13T01:19:44;10.32;;;7.68;;
22939;SDS011;11636;52.086;5.090;2022-10-13T01:25:33;11.20;;;7.28;;
22939;SDS011;11636;52.086;5.090;2022-10-13T01:38:07;15.85;;;10.13;;
22939;SDS011;11636;52.086;5.090;2022-10-13T01:41:22;11.75;;;8.05;;
22939;SDS011;11636;52.086;5.090;2022-10-13T01:46:47;14.95;;;9.20;;
22939;SDS011;11636;52.086;5.090;2022-10-13T01:49:18;10.40;;;7.78;;
22939;SDS011;11636;52.086;5.090;2022-10-13T01:51:55;9.35;;;6.53;;
22939;SDS011;11636;52.086;5.090;2022-10-13T01:54:33;12.57;;;7.40;;
22939;SDS011;11636;52.086;5.090;2022-10-13T01:57:00;10.55;;;7.32;;
22939;SDS011;11636;52.086;5.090;2022-10-13T01:59:30;12.20;;;8.60;;
22939;SDS011;11636;52.086;5.090;2022-10-13T02:02:14;11.45;;;7.65;;
22939;SDS011;11636;52.086;5.090;2022-10-13T02:07:54;14.35;;;9.57;;
22939;SDS011;11636;52.086;5.090;2022-10-13T02:11:20;14.35;;;9.35;;
22939;SDS011;11636;52.086;5.090;2022-10-13T02:13:35;18.17;;;11.77;;
22939;SDS011;11636;52.086;5.090;2022-10-13T02:16:05;14.20;;;9.45;;
22939;SDS011;11636;52.086;5.090;2022-10-13T02:18:39;16.30;;;9.85;;
22939;SDS011;11636;52.086;5.090;2022-10-13T02:21:07;15.70;;;10.48;;
22939;SDS011;11636;52.086;5.090;2022-10-13T02:23:41;16.30;;;11.00;;
22939;SDS011;11636;52.086;5.090;2022-10-13T02:26:15;16.60;;;11.00;;
22939;SDS011;11636;52.086;5.090;2022-10-13T02:28:42;15.13;;;10.68;;
22939;SDS011;11636;52.086;5.090;2022-10-13T02:31:09;13.93;;;9.82;;
22939;SDS011;11636;52.086;5.090;2022-10-13T02:33:42;13.43;;;9.88;;
22939;SDS011;11636;52.086;5.090;2022-10-13T02:36:09;10.07;;;7.47;;
22939;SDS011;11636;52.086;5.090;2022-10-13T02:38:42;9.68;;;6.53;;
22939;SDS011;11636;52.086;5.090;2022-10-13T02:41:09;8.98;;;7.00;;
22939;SDS011;11636;52.086;5.090;2022-10-13T02:43:36;9.00;;;6.63;;
22939;SDS011;11636;52.086;5.090;2022-10-13T02:46:10;12.20;;;8.18;;
22939;SDS011;11636;52.086;5.090;2022-10-13T02:48:37;12.43;;;7.95;;
22939;SDS011;11636;52.086;5.090;2022-10-13T02:51:10;10.73;;;7.57;;
22939;SDS011;11636;52.086;5.090;2022-10-13T02:53:43;10.55;;;7.40;;
22939;SDS011;11636;52.086;5.090;2022-10-13T02:56:16;11.10;;;7.70;;
22939;SDS011;11636;52.086;5.090;2022-10-13T02:58:44;9.52;;;7.10;;
22939;SDS011;11636;52.086;5.090;2022-10-13T03:01:17;11.07;;;7.70;;
22939;SDS011;11636;52.086;5.090;2022-10-13T03:03:44;13.50;;;9.32;;
22939;SDS011;11636;52.086;5.090;2022-10-13T03:06:11;13.88;;;8.90;;
22939;SDS011;11636;52.086;5.090;2022-10-13T03:08:44;15.18;;;9.50;;
22939;SDS011;11636;52.086;5.090;2022-10-13T03:11:17;13.65;;;9.25;;
22939;SDS011;11636;52.086;5.090;2022-10-13T03:13:44;14.00;;;9.88;;
22939;SDS011;11636;52.086;5.090;2022-10-13T03:16:17;13.35;;;9.02;;
22939;SDS011;11636;52.086;5.090;2022-10-13T03:18:50;13.65;;;8.52;;
22939;SDS011;11636;52.086;5.090;2022-10-13T03:21:23;13.73;;;9.13;;
22939;SDS011;11636;52.086;5.090;2022-10-13T03:23:50;10.63;;;8.02;;
22939;SDS011;11636;52.086;5.090;2022-10-13T03:26:23;10.98;;;7.72;;
22939;SDS011;11636;52.086;5.090;2022-10-13T03:28:50;9.80;;;7.22;;
22939;SDS011;11636;52.086;5.090;2022-10-13T03:31:24;9.65;;;7.18;;
22939;SDS011;11636;52.086;5.090;2022-10-13T03:33:51;9.10;;;6.22;;
22939;SDS011;11636;52.086;5.090;2022-10-13T03:36:18;10.38;;;7.30;;
22939;SDS011;11636;52.086;5.090;2022-10-13T03:38:52;10.88;;;7.72;;
22939;SDS011;11636;52.086;5.090;2022-10-13T03:41:25;9.27;;;6.32;;
22939;SDS011;11636;52.086;5.090;2022-10-13T03:43:52;9.77;;;6.97;;
22939;SDS011;11636;52.086;5.090;2022-10-13T03:46:26;11.75;;;8.07;;
22939;SDS011;11636;52.086;5.090;2022-10-13T03:49:00;14.45;;;9.30;;
22939;SDS011;11636;52.086;5.090;2022-10-13T03:51:27;12.40;;;8.73;;
22939;SDS011;11636;52.086;5.090;2022-10-13T03:54:00;14.40;;;8.70;;
22939;SDS011;11636;52.086;5.090;2022-10-13T03:56:33;13.10;;;8.48;;
22939;SDS011;11636;52.086;5.090;2022-10-13T03:59:01;16.42;;;9.90;;
22939;SDS011;11636;52.086;5.090;2022-10-13T04:01:30;11.75;;;8.98;;
22939;SDS011;11636;52.086;5.090;2022-10-13T04:04:04;13.75;;;8.38;;
22939;SDS011;11636;52.086;5.090;2022-10-13T04:06:33;11.02;;;8.00;;
22939;SDS011;11636;52.086;5.090;2022-10-13T04:09:06;9.50;;;7.00;;
22939;SDS011;11636;52.086;5.090;2022-10-13T04:11:34;9.65;;;7.25;;
22939;SDS011;11636;52.086;5.090;2022-10-13T04:14:07;10.35;;;7.72;;
22939;SDS011;11636;52.086;5.090;2022-10-13T04:16:34;15.05;;;9.05;;
22939;SDS011;11636;52.086;5.090;2022-10-13T04:19:09;10.77;;;7.50;;
22939;SDS011;11636;52.086;5.090;2022-10-13T04:21:38;10.80;;;7.70;;
22939;SDS011;11636;52.086;5.090;2022-10-13T04:24:11;10.82;;;7.63;;
22939;SDS011;11636;52.086;5.090;2022-10-13T04:26:39;12.43;;;7.43;;
22939;SDS011;11636;52.086;5.090;2022-10-13T04:29:12;10.93;;;7.85;;
22939;SDS011;11636;52.086;5.090;2022-10-13T04:31:39;10.50;;;8.05;;
22939;SDS011;11636;52.086;5.090;2022-10-13T04:34:15;10.10;;;7.63;;
22939;SDS011;11636;52.086;5.090;2022-10-13T04:36:49;12.95;;;9.13;;
22939;SDS011;11636;52.086;5.090;2022-10-13T04:39:23;10.10;;;7.30;;
22939;SDS011;11636;52.086;5.090;2022-10-13T04:41:56;9.32;;;7.35;;
22939;SDS011;11636;52.086;5.090;2022-10-13T04:44:29;12.43;;;8.15;;
22939;SDS011;11636;52.086;5.090;2022-10-13T04:46:56;10.65;;;7.50;;
22939;SDS011;11636;52.086;5.090;2022-10-13T04:49:29;11.32;;;8.32;;
22939;SDS011;11636;52.086;5.090;2022-10-13T04:51:57;15.20;;;9.30;;
22939;SDS011;11636;52.086;5.090;2022-10-13T04:54:30;13.02;;;9.57;;
22939;SDS011;11636;52.086;5.090;2022-10-13T04:56:57;11.02;;;8.07;;
22939;SDS011;11636;52.086;5.090;2022-10-13T04:59:24;14.32;;;9.10;;
22939;SDS011;11636;52.086;5.090;2022-10-13T05:01:57;14.43;;;8.73;;
22939;SDS011;11636;52.086;5.090;2022-10-13T05:04:25;10.45;;;7.28;;
22939;SDS011;11636;52.086;5.090;2022-10-13T05:07:07;12.10;;;8.40;;
22939;SDS011;11636;52.086;5.090;2022-10-13T05:09:43;10.60;;;8.43;;
22939;SDS011;11636;52.086;5.090;2022-10-13T05:17:34;12.77;;;8.55;;
22939;SDS011;11636;52.086;5.090;2022-10-13T05:20:08;13.73;;;9.23;;
22939;SDS011;11636;52.086;5.090;2022-10-13T05:22:41;12.07;;;7.93;;
22939;SDS011;11636;52.086;5.090;2022-10-13T05:25:15;11.60;;;8.65;;
22939;SDS011;11636;52.086;5.090;2022-10-13T05:27:48;15.90;;;9.20;;
22939;SDS011;11636;52.086;5.090;2022-10-13T05:30:28;11.13;;;7.82;;
22939;SDS011;11636;52.086;5.090;2022-10-13T05:32:55;15.15;;;9.93;;
22939;SDS011;11636;52.086;5.090;2022-10-13T05:35:29;13.63;;;8.70;;
22939;SDS011;11636;52.086;5.090;2022-10-13T05:37:56;13.23;;;9.45;;
22939;SDS011;11636;52.086;5.090;2022-10-13T05:40:23;19.88;;;12.10;;
22939;SDS011;11636;52.086;5.090;2022-10-13T05:42:56;15.15;;;10.57;;
22939;SDS011;11636;52.086;5.090;2022-10-13T05:45:31;20.30;;;12.43;;
22939;SDS011;11636;52.086;5.090;2022-10-13T05:47:58;20.13;;;12.82;;
22939;SDS011;11636;52.086;5.090;2022-10-13T05:50:31;16.40;;;11.25;;
22939;SDS011;11636;52.086;5.090;2022-10-13T05:52:59;16.40;;;10.27;;
22939;SDS011;11636;52.086;5.090;2022-10-13T05:55:32;15.52;;;10.45;;
22939;SDS011;11636;52.086;5.090;2022-10-13T05:57:59;12.98;;;9.70;;
22939;SDS011;11636;52.086;5.090;2022-10-13T06:00:33;15.38;;;9.10;;
22939;SDS011;11636;52.086;5.090;2022-10-13T06:03:02;9.95;;;7.28;;
22939;SDS011;11636;52.086;5.090;2022-10-13T06:05:44;11.45;;;8.02;;
22939;SDS011;11636;52.086;5.090;2022-10-13T06:08:13;11.80;;;7.93;;
22939;SDS011;11636;52.086;5.090;2022-10-13T06:10:46;12.05;;;8.75;;
22939;SDS011;11636;52.086;5.090;2022-10-13T06:13:13;12.60;;;7.75;;
22939;SDS011;11636;52.086;5.090;2022-10-13T06:15:46;9.70;;;7.50;;
22939;SDS011;11636;52.086;5.090;2022-10-13T06:18:13;8.43;;;6.40;;
22939;SDS011;11636;52.086;5.090;2022-10-13T06:20:46;8.70;;;6.97;;
22939;SDS011;11636;52.086;5.090;2022-10-13T06:23:13;10.50;;;6.72;;
22939;SDS011;11636;52.086;5.090;2022-10-13T06:25:52;10.05;;;6.80;;
22939;SDS011;11636;52.086;5.090;2022-10-13T06:28:19;10.55;;;7.07;;
22939;SDS011;11636;52.086;5.090;2022-10-13T06:30:47;10.23;;;7.20;;
22939;SDS011;11636;52.086;5.090;2022-10-13T06:33:31;11.38;;;7.82;;
22939;SDS011;11636;52.086;5.090;2022-10-13T06:36:05;9.95;;;6.95;;
22939;SDS011;11636;52.086;5.090;2022-10-13T06:38:32;12.65;;;8.40;;
22939;SDS011;11636;52.086;5.090;2022-10-13T06:40:59;11.20;;;7.80;;
22939;SDS011;11636;52.086;5.090;2022-10-13T06:43:39;14.15;;;9.48;;
22939;SDS011;11636;52.086;5.090;2022-10-13T06:46:13;14.60;;;9.65;;
22939;SDS011;11636;52.086;5.090;2022-10-13T06:48:49;15.75;;;10.45;;
22939;SDS011;11636;52.086;5.090;2022-10-13T06:51:22;20.75;;;12.23;;
22939;SDS011;11636;52.086;5.090;2022-10-13T06:53:56;15.80;;;11.55;;
22939;SDS011;11636;52.086;5.090;2022-10-13T06:56:29;14.57;;;10.70;;
22939;SDS011;11636;52.086;5.090;2022-10-13T06:59:03;16.17;;;11.60;;
22939;SDS011;11636;52.086;5.090;2022-10-13T07:01:30;13.82;;;10.65;;
22939;SDS011;11636;52.086;5.090;2022-10-13T07:03:57;18.65;;;13.07;;
22939;SDS011;11636;52.086;5.090;2022-10-13T07:06:31;18.55;;;12.68;;
22939;SDS011;11636;52.086;5.090;2022-10-13T07:08:57;17.10;;;12.18;;
22939;SDS011;11636;52.086;5.090;2022-10-13T07:11:27;18.15;;;12.55;;
22939;SDS011;11636;52.086;5.090;2022-10-13T07:14:01;19.80;;;14.00;;
22939;SDS011;11636;52.086;5.090;2022-10-13T07:16:28;18.80;;;13.23;;
22939;SDS011;11636;52.086;5.090;2022-10-13T07:19:02;18.45;;;14.27;;
22939;SDS011;11636;52.086;5.090;2022-10-13T07:21:28;20.50;;;15.85;;
22939;SDS011;11636;52.086;5.090;2022-10-13T07:24:08;28.70;;;20.10;;
22939;SDS011;11636;52.086;5.090;2022-10-13T07:26:37;26.83;;;18.90;;
22939;SDS011;11636;52.086;5.090;2022-10-13T07:29:11;23.27;;;16.73;;
22939;SDS011;11636;52.086;5.090;2022-10-13T07:31:37;24.60;;;17.80;;
22939;SDS011;11636;52.086;5.090;2022-10-13T07:34:11;25.23;;;17.65;;
22939;SDS011;11636;52.086;5.090;2022-10-13T07:36:46;22.50;;;16.85;;
22939;SDS011;11636;52.086;5.090;2022-10-13T07:39:19;28.90;;;18.30;;
22939;SDS011;11636;52.086;5.090;2022-10-13T07:41:46;26.10;;;19.70;;
22939;SDS011;11636;52.086;5.090;2022-10-13T07:44:20;19.50;;;15.82;;
22939;SDS011;11636;52.086;5.090;2022-10-13T07:46:46;18.55;;;14.68;;
22939;SDS011;11636;52.086;5.090;2022-10-13T07:49:20;17.98;;;13.65;;
22939;SDS011;11636;52.086;5.090;2022-10-13T07:51:47;21.35;;;15.45;;
22939;SDS011;11636;52.086;5.090;2022-10-13T07:54:21;20.05;;;15.18;;
22939;SDS011;11636;52.086;5.090;2022-10-13T07:56:52;21.17;;;15.17;;
22939;SDS011;11636;52.086;5.090;2022-10-13T07:59:21;18.23;;;14.23;;
22939;SDS011;11636;52.086;5.090;2022-10-13T08:01:55;25.27;;;17.77;;
22939;SDS011;11636;52.086;5.090;2022-10-13T08:04:29;18.92;;;14.43;;
22939;SDS011;11636;52.086;5.090;2022-10-13T08:06:57;16.52;;;12.70;;
22939;SDS011;11636;52.086;5.090;2022-10-13T08:09:30;14.35;;;11.43;;
22939;SDS011;11636;52.086;5.090;2022-10-13T08:11:57;21.55;;;15.15;;
22939;SDS011;11636;52.086;5.090;2022-10-13T08:14:30;18.05;;;12.88;;
22939;SDS011;11636;52.086;5.090;2022-10-13T08:17:03;21.17;;;14.57;;
22939;SDS011;11636;52.086;5.090;2022-10-13T08:19:43;19.85;;;16.10;;
22939;SDS011;11636;52.086;5.090;2022-10-13T08:22:17;27.30;;;16.80;;
22939;SDS011;11636;52.086;5.090;2022-10-13T08:24:43;19.58;;;14.40;;
22939;SDS011;11636;52.086;5.090;2022-10-13T08:27:21;21.73;;;15.73;;
22939;SDS011;11636;52.086;5.090;2022-10-13T08:30:02;22.65;;;14.98;;
22939;SDS011;11636;52.086;5.090;2022-10-13T08:32:37;16.05;;;13.05;;
22939;SDS011;11636;52.086;5.090;2022-10-13T08:35:04;16.55;;;12.10;;
22939;SDS011;11636;52.086;5.090;2022-10-13T08:37:38;12.63;;;10.63;;
22939;SDS011;11636;52.086;5.090;2022-10-13T08:40:14;15.07;;;11.70;;
22939;SDS011;11636;52.086;5.090;2022-10-13T08:42:52;16.20;;;12.68;;
22939;SDS011;11636;52.086;5.090;2022-10-13T08:45:27;15.73;;;12.27;;
22939;SDS011;11636;52.086;5.090;2022-10-13T08:48:14;13.03;;;10.63;;
22939;SDS011;11636;52.086;5.090;2022-10-13T08:50:44;16.90;;;12.98;;
22939;SDS011;11636;52.086;5.090;2022-10-13T08:53:28;13.27;;;11.25;;
22939;SDS011;11636;52.086;5.090;2022-10-13T08:56:12;17.10;;;13.15;;
22939;SDS011;11636;52.086;5.090;2022-10-13T08:58:47;19.88;;;14.57;;
22939;SDS011;11636;52.086;5.090;2022-10-13T09:01:20;18.52;;;15.27;;
22939;SDS011;11636;52.086;5.090;2022-10-13T09:07:25;22.98;;;15.73;;
22939;SDS011;11636;52.086;5.090;2022-10-13T09:09:54;18.83;;;13.93;;
22939;SDS011;11636;52.086;5.090;2022-10-13T09:12:28;15.05;;;11.90;;
22939;SDS011;11636;52.086;5.090;2022-10-13T09:17:36;16.13;;;12.70;;
22939;SDS011;11636;52.086;5.090;2022-10-13T09:25:39;14.73;;;12.43;;
22939;SDS011;11636;52.086;5.090;2022-10-13T09:28:30;13.93;;;11.77;;
22939;SDS011;11636;52.086;5.090;2022-10-13T09:31:18;16.95;;;13.13;;
22939;SDS011;11636;52.086;5.090;2022-10-13T09:34:01;16.75;;;14.00;;
22939;SDS011;11636;52.086;5.090;2022-10-13T09:36:56;13.68;;;11.70;;
22939;SDS011;11636;52.086;5.090;2022-10-13T09:39:35;19.45;;;13.90;;
22939;SDS011;11636;52.086;5.090;2022-10-13T09:42:19;15.80;;;12.63;;
22939;SDS011;11636;52.086;5.090;2022-10-13T09:45:00;20.38;;;14.85;;
22939;SDS011;11636;52.086;5.090;2022-10-13T09:47:37;19.80;;;14.65;;
22939;SDS011;11636;52.086;5.090;2022-10-13T09:50:22;13.63;;;11.35;;
22939;SDS011;11636;52.086;5.090;2022-10-13T09:52:52;16.05;;;10.73;;
22939;SDS011;11636;52.086;5.090;2022-10-13T09:55:30;16.02;;;11.63;;
22939;SDS011;11636;52.086;5.090;2022-10-13T09:58:05;18.27;;;12.15;;
22939;SDS011;11636;52.086;5.090;2022-10-13T10:00:47;16.63;;;11.35;;
22939;SDS011;11636;52.086;5.090;2022-10-13T10:03:21;21.10;;;12.70;;
22939;SDS011;11636;52.086;5.090;2022-10-13T10:06:04;15.83;;;11.20;;
22939;SDS011;11636;52.086;5.090;2022-10-13T10:08:40;11.40;;;8.70;;
22939;SDS011;11636;52.086;5.090;2022-10-13T10:11:39;10.90;;;7.65;;
22939;SDS011;11636;52.086;5.090;2022-10-13T10:14:28;15.57;;;10.07;;
22939;SDS011;11636;52.086;5.090;2022-10-13T10:22:46;14.98;;;9.45;;
22939;SDS011;11636;52.086;5.090;2022-10-13T10:26:09;16.10;;;8.90;;
22939;SDS011;11636;52.086;5.090;2022-10-13T10:40:15;13.18;;;9.40;;
22939;SDS011;11636;52.086;5.090;2022-10-13T10:45:40;19.30;;;10.43;;
22939;SDS011;11636;52.086;5.090;2022-10-13T10:50:45;12.40;;;8.82;;
22939;SDS011;11636;52.086;5.090;2022-10-13T10:56:27;11.95;;;8.57;;
22939;SDS011;11636;52.086;5.090;2022-10-13T11:08:58;10.43;;;7.45;;
22939;SDS011;11636;52.086;5.090;2022-10-13T11:16:33;13.68;;;9.45;;
22939;SDS011;11636;52.086;5.090;2022-10-13T11:27:25;12.43;;;8.20;;
22939;SDS011;11636;52.086;5.090;2022-10-13T11:30:02;9.80;;;7.60;;
22939;SDS011;11636;52.086;5.090;2022-10-13T11:32:40;14.55;;;8.85;;
22939;SDS011;11636;52.086;5.090;2022-10-13T11:52:16;11.38;;;8.40;;
22939;SDS011;11636;52.086;5.090;2022-10-13T11:54:53;11.40;;;7.95;;
22939;SDS011;11636;52.086;5.090;2022-10-13T11:57:33;11.25;;;8.15;;
22939;SDS011;11636;52.086;5.090;2022-10-13T12:00:16;15.27;;;9.57;;
22939;SDS011;11636;52.086;5.090;2022-10-13T12:02:48;11.73;;;8.93;;
22939;SDS011;11636;52.086;5.090;2022-10-13T12:05:24;11.98;;;7.90;;
22939;SDS011;11636;52.086;5.090;2022-10-13T12:07:54;10.95;;;8.00;;
22939;SDS011;11636;52.086;5.090;2022-10-13T12:10:33;9.02;;;6.75;;
22939;SDS011;11636;52.086;5.090;2022-10-13T12:13:30;9.13;;;7.15;;
22939;SDS011;11636;52.086;5.090;2022-10-13T12:18:38;16.30;;;10.68;;
22939;SDS011;11636;52.086;5.090;2022-10-13T12:21:20;15.27;;;9.82;;
22939;SDS011;11636;52.086;5.090;2022-10-13T12:23:49;18.90;;;12.38;;
22939;SDS011;11636;52.086;5.090;2022-10-13T12:26:23;11.40;;;8.82;;
22939;SDS011;11636;52.086;5.090;2022-10-13T12:29:00;10.82;;;7.72;;
22939;SDS011;11636;52.086;5.090;2022-10-13T12:39:22;14.60;;;9.35;;
22939;SDS011;11636;52.086;5.090;2022-10-13T12:41:57;15.25;;;9.43;;
22939;SDS011;11636;52.086;5.090;2022-10-13T12:44:28;10.07;;;7.35;;
22939;SDS011;11636;52.086;5.090;2022-10-13T12:47:03;18.88;;;11.38;;
22939;SDS011;11636;52.086;5.090;2022-10-13T12:49:36;12.73;;;8.00;;
22939;SDS011;11636;52.086;5.090;2022-10-13T12:52:14;11.27;;;8.45;;
22939;SDS011;11636;52.086;5.090;2022-10-13T12:54:50;13.63;;;9.07;;
22939;SDS011;11636;52.086;5.090;2022-10-13T12:57:35;12.98;;;8.77;;
22939;SDS011;11636;52.086;5.090;2022-10-13T13:00:15;10.07;;;7.75;;
22939;SDS011;11636;52.086;5.090;2022-10-13T13:02:53;9.50;;;6.97;;
22939;SDS011;11636;52.086;5.090;2022-10-13T13:05:42;9.63;;;7.03;;
22939;SDS011;11636;52.086;5.090;2022-10-13T13:08:27;12.07;;;7.70;;
22939;SDS011;11636;52.086;5.090;2022-10-13T13:11:03;11.45;;;8.05;;
22939;SDS011;11636;52.086;5.090;2022-10-13T13:13:38;11.25;;;8.43;;
22939;SDS011;11636;52.086;5.090;2022-10-13T13:16:12;10.43;;;7.82;;
22939;SDS011;11636;52.086;5.090;2022-10-13T13:18:53;8.75;;;6.57;;
22939;SDS011;11636;52.086;5.090;2022-10-13T13:21:20;10.85;;;6.63;;
22939;SDS011;11636;52.086;5.090;2022-10-13T13:23:54;8.60;;;6.50;;
22939;SDS011;11636;52.086;5.090;2022-10-13T13:26:41;13.93;;;8.05;;
22939;SDS011;11636;52.086;5.090;2022-10-13T13:29:11;13.80;;;10.43;;
22939;SDS011;11636;52.086;5.090;2022-10-13T13:31:44;11.65;;;8.23;;
22939;SDS011;11636;52.086;5.090;2022-10-13T13:34:11;13.23;;;10.05;;
22939;SDS011;11636;52.086;5.090;2022-10-13T13:36:49;11.38;;;8.65;;
22939;SDS011;11636;52.086;5.090;2022-10-13T13:39:16;14.40;;;9.93;;
22939;SDS011;11636;52.086;5.090;2022-10-13T13:41:57;11.82;;;8.85;;
22939;SDS011;11636;52.086;5.090;2022-10-13T13:44:44;15.25;;;9.68;;
22939;SDS011;11636;52.086;5.090;2022-10-13T13:47:19;14.02;;;9.40;;
22939;SDS011;11636;52.086;5.090;2022-10-13T13:49:48;10.93;;;8.45;;
22939;SDS011;11636;52.086;5.090;2022-10-13T13:52:23;13.40;;;9.75;;
22939;SDS011;11636;52.086;5.090;2022-10-13T13:54:51;12.95;;;9.68;;
22939;SDS011;11636;52.086;5.090;2022-10-13T13:57:24;12.10;;;9.15;;
22939;SDS011;11636;52.086;5.090;2022-10-13T13:59:52;15.35;;;10.45;;
22939;SDS011;11636;52.086;5.090;2022-10-13T14:02:19;13.95;;;11.15;;
22939;SDS011;11636;52.086;5.090;2022-10-13T14:05:00;19.05;;;13.48;;
22939;SDS011;11636;52.086;5.090;2022-10-13T14:07:33;16.60;;;12.60;;
22939;SDS011;11636;52.086;5.090;2022-10-13T14:10:08;16.25;;;12.40;;
22939;SDS011;11636;52.086;5.090;2022-10-13T14:12:42;16.08;;;11.73;;
22939;SDS011;11636;52.086;5.090;2022-10-13T14:15:15;15.15;;;11.30;;
22939;SDS011;11636;52.086;5.090;2022-10-13T14:17:42;13.98;;;10.05;;
22939;SDS011;11636;52.086;5.090;2022-10-13T14:20:15;12.35;;;9.30;;
22939;SDS011;11636;52.086;5.090;2022-10-13T14:22:48;18.35;;;13.68;;
22939;SDS011;11636;52.086;5.090;2022-10-13T14:25:21;28.98;;;18.27;;
22939;SDS011;11636;52.086;5.090;2022-10-13T14:27:48;21.63;;;15.23;;
22939;SDS011;11636;52.086;5.090;2022-10-13T14:30:21;17.23;;;13.18;;
22939;SDS011;11636;52.086;5.090;2022-10-13T14:32:54;15.32;;;12.27;;
22939;SDS011;11636;52.086;5.090;2022-10-13T14:35:21;19.38;;;13.82;;
22939;SDS011;11636;52.086;5.090;2022-10-13T14:37:54;17.25;;;12.02;;
22939;SDS011;11636;52.086;5.090;2022-10-13T14:40:21;15.10;;;10.70;;
22939;SDS011;11636;52.086;5.090;2022-10-13T14:42:54;17.40;;;12.77;;
22939;SDS011;11636;52.086;5.090;2022-10-13T14:45:21;17.17;;;13.90;;
22939;SDS011;11636;52.086;5.090;2022-10-13T14:47:50;17.45;;;12.85;;
22939;SDS011;11636;52.086;5.090;2022-10-13T14:50:24;18.45;;;13.80;;
22939;SDS011;11636;52.086;5.090;2022-10-13T14:52:51;15.52;;;12.30;;
22939;SDS011;11636;52.086;5.090;2022-10-13T14:55:24;17.50;;;13.30;;
22939;SDS011;11636;52.086;5.090;2022-10-13T14:57:51;13.63;;;11.40;;
22939;SDS011;11636;52.086;5.090;2022-10-13T15:00:24;12.73;;;10.55;;
22939;SDS011;11636;52.086;5.090;2022-10-13T15:02:51;17.48;;;12.63;;
22939;SDS011;11636;52.086;5.090;2022-10-13T15:05:24;12.93;;;10.60;;
22939;SDS011;11636;52.086;5.090;2022-10-13T15:07:51;13.18;;;10.40;;
22939;SDS011;11636;52.086;5.090;2022-10-13T15:10:24;15.63;;;11.48;;
22939;SDS011;11636;52.086;5.090;2022-10-13T15:12:51;12.50;;;10.02;;
22939;SDS011;11636;52.086;5.090;2022-10-13T15:15:24;12.32;;;10.23;;
22939;SDS011;11636;52.086;5.090;2022-10-13T15:17:51;15.57;;;11.52;;
22939;SDS011;11636;52.086;5.090;2022-10-13T15:20:24;11.85;;;9.43;;
22939;SDS011;11636;52.086;5.090;2022-10-13T15:22:51;11.07;;;8.68;;
22939;SDS011;11636;52.086;5.090;2022-10-13T15:25:25;11.02;;;8.90;;
22939;SDS011;11636;52.086;5.090;2022-10-13T15:27:58;12.10;;;9.32;;
22939;SDS011;11636;52.086;5.090;2022-10-13T15:30:32;18.98;;;14.30;;
22939;SDS011;11636;52.086;5.090;2022-10-13T15:33:05;16.42;;;11.10;;
22939;SDS011;11636;52.086;5.090;2022-10-13T15:35:32;13.00;;;10.18;;
22939;SDS011;11636;52.086;5.090;2022-10-13T15:38:05;13.85;;;10.98;;
22939;SDS011;11636;52.086;5.090;2022-10-13T15:40:32;14.88;;;10.73;;
22939;SDS011;11636;52.086;5.090;2022-10-13T15:43:07;10.88;;;8.73;;
22939;SDS011;11636;52.086;5.090;2022-10-13T15:45:41;14.00;;;10.32;;
22939;SDS011;11636;52.086;5.090;2022-10-13T15:48:24;13.35;;;9.85;;
22939;SDS011;11636;52.086;5.090;2022-10-13T15:50:58;14.48;;;9.60;;
22939;SDS011;11636;52.086;5.090;2022-10-13T15:53:25;12.27;;;8.57;;
22939;SDS011;11636;52.086;5.090;2022-10-13T15:55:52;9.75;;;7.93;;
22939;SDS011;11636;52.086;5.090;2022-10-13T15:58:26;14.07;;;9.48;;
22939;SDS011;11636;52.086;5.090;2022-10-13T16:00:59;11.30;;;9.20;;
22939;SDS011;11636;52.086;5.090;2022-10-13T16:03:26;17.02;;;13.25;;
22939;SDS011;11636;52.086;5.090;2022-10-13T16:05:55;13.10;;;11.05;;
22939;SDS011;11636;52.086;5.090;2022-10-13T16:08:28;12.15;;;9.20;;
22939;SDS011;11636;52.086;5.090;2022-10-13T16:11:06;12.45;;;9.10;;
22939;SDS011;11636;52.086;5.090;2022-10-13T16:13:34;13.25;;;11.57;;
22939;SDS011;11636;52.086;5.090;2022-10-13T16:16:07;11.75;;;9.00;;
22939;SDS011;11636;52.086;5.090;2022-10-13T16:18:35;10.63;;;8.75;;
22939;SDS011;11636;52.086;5.090;2022-10-13T16:23:44;17.75;;;10.52;;
22939;SDS011;11636;52.086;5.090;2022-10-13T16:26:25;10.90;;;8.52;;
22939;SDS011;11636;52.086;5.090;2022-10-13T16:28:53;9.93;;;7.65;;
22939;SDS011;11636;52.086;5.090;2022-10-13T16:31:27;9.32;;;6.97;;
22939;SDS011;11636;52.086;5.090;2022-10-13T16:33:55;7.93;;;6.78;;
22939;SDS011;11636;52.086;5.090;2022-10-13T16:36:28;7.80;;;6.00;;
22939;SDS011;11636;52.086;5.090;2022-10-13T16:39:01;6.50;;;5.28;;
22939;SDS011;11636;52.086;5.090;2022-10-13T16:41:34;7.05;;;6.13;;
22939;SDS011;11636;52.086;5.090;2022-10-13T16:44:08;6.63;;;5.10;;
22939;SDS011;11636;52.086;5.090;2022-10-13T16:46:35;8.13;;;6.18;;
22939;SDS011;11636;52.086;5.090;2022-10-13T16:49:12;6.55;;;5.00;;
22939;SDS011;11636;52.086;5.090;2022-10-13T16:51:39;6.93;;;4.55;;
22939;SDS011;11636;52.086;5.090;2022-10-13T16:54:12;6.20;;;4.57;;
22939;SDS011;11636;52.086;5.090;2022-10-13T16:56:39;6.38;;;4.22;;
22939;SDS011;11636;52.086;5.090;2022-10-13T16:59:12;7.53;;;4.60;;
22939;SDS011;11636;52.086;5.090;2022-10-13T17:01:39;5.22;;;3.80;;